createdAt,value
2023-12-19T00:01:04.356Z,4.00
2023-12-19T00:04:08.018Z,4.63
2023-12-19T00:07:10.833Z,7.97
2023-12-19T00:10:14.014Z,6.15
2023-12-19T00:13:16.802Z,7.30
2023-12-19T00:16:19.498Z,8.70
2023-12-19T00:19:22.349Z,7.57
2023-12-19T00:22:25.644Z,7.57
2023-12-19T00:25:29.472Z,6.43
2023-12-19T00:28:33.267Z,6.10
2023-12-19T00:31:36.126Z,4.32
2023-12-19T00:34:39.226Z,3.67
2023-12-19T00:37:41.939Z,3.40
2023-12-19T00:40:44.707Z,3.38
2023-12-19T00:43:47.643Z,3.03
2023-12-19T00:46:50.367Z,3.10
2023-12-19T00:49:53.702Z,6.45
2023-12-19T00:52:59.510Z,3.13
2023-12-19T00:56:02.245Z,3.17
2023-12-19T00:59:04.929Z,3.70
2023-12-19T01:02:07.812Z,3.35
2023-12-19T01:05:10.578Z,3.50
2023-12-19T01:08:13.291Z,3.33
2023-12-19T01:11:16.055Z,3.72
2023-12-19T01:14:21.473Z,4.63
2023-12-19T01:17:24.208Z,6.57
2023-12-19T01:20:26.911Z,6.40
2023-12-19T01:23:29.641Z,6.65
2023-12-19T01:26:34.081Z,11.57
2023-12-19T01:29:36.862Z,10.35
2023-12-19T01:32:39.650Z,49.53
2023-12-19T01:35:42.698Z,10.40
2023-12-19T01:38:45.410Z,7.78
2023-12-19T01:41:48.113Z,7.43
2023-12-19T01:45:09.844Z,7.43
2023-12-19T01:48:13.893Z,7.18
2023-12-19T01:51:16.721Z,10.10
2023-12-19T01:54:20.843Z,6.80
2023-12-19T01:57:23.870Z,6.97
2023-12-19T02:00:26.781Z,7.00
2023-12-19T02:03:29.753Z,9.43
2023-12-19T02:06:36.139Z,11.23
2023-12-19T02:09:39.112Z,9.53
2023-12-19T02:12:43.180Z,6.50
2023-12-19T02:15:46.048Z,7.65
2023-12-19T02:19:07.054Z,7.38
2023-12-19T02:22:09.830Z,8.05
2023-12-19T02:25:12.711Z,7.40
2023-12-19T02:28:15.509Z,7.68
2023-12-19T02:31:18.257Z,7.40
2023-12-19T02:34:21.328Z,6.63
2023-12-19T02:37:24.053Z,4.85
2023-12-19T02:40:27.266Z,3.95
2023-12-19T02:43:29.929Z,4.22
2023-12-19T02:46:33.618Z,3.75
2023-12-19T02:49:36.435Z,3.55
2023-12-19T02:52:39.259Z,2.92
2023-12-19T02:55:43.362Z,4.63
2023-12-19T02:58:46.095Z,9.25
2023-12-19T03:01:51.532Z,7.57
2023-12-19T03:04:54.580Z,8.43
2023-12-19T03:07:57.888Z,5.90
2023-12-19T03:11:00.636Z,4.47
2023-12-19T03:14:03.344Z,2.42
2023-12-19T03:17:06.331Z,3.03
2023-12-19T03:20:09.958Z,6.45
2023-12-19T03:23:12.784Z,6.45
2023-12-19T03:26:15.507Z,6.47
2023-12-19T03:29:18.200Z,3.08
2023-12-19T03:32:20.973Z,2.25
2023-12-19T03:35:24.701Z,2.85
2023-12-19T03:38:27.460Z,3.72
2023-12-19T03:41:30.082Z,3.40
2023-12-19T03:44:33.286Z,3.65
2023-12-19T03:47:36.614Z,3.28
2023-12-19T03:50:39.278Z,4.05
2023-12-19T03:53:42.001Z,7.43
2023-12-19T03:56:44.713Z,6.97
2023-12-19T03:59:47.369Z,7.38
2023-12-19T04:02:50.042Z,7.97
2023-12-19T04:05:52.825Z,7.32
2023-12-19T04:08:55.623Z,7.53
2023-12-19T04:12:03.415Z,7.32
2023-12-19T04:15:06.505Z,7.93
2023-12-19T04:18:11.746Z,7.55
2023-12-19T04:21:14.515Z,5.93
2023-12-19T04:24:17.871Z,5.05
2023-12-19T04:27:20.517Z,3.95
2023-12-19T04:30:23.408Z,4.10
2023-12-19T04:33:26.247Z,3.15
2023-12-19T04:36:30.933Z,2.55
2023-12-19T04:39:33.630Z,2.45
2023-12-19T04:42:36.835Z,2.28
2023-12-19T04:45:39.535Z,2.45
2023-12-19T04:48:43.864Z,3.80
2023-12-19T04:51:46.816Z,5.47
2023-12-19T04:54:49.712Z,3.13
2023-12-19T04:57:52.438Z,2.80
2023-12-19T05:00:55.291Z,3.70
2023-12-19T05:03:58.061Z,6.70
2023-12-19T05:07:00.867Z,6.38
2023-12-19T05:10:05.685Z,6.75
2023-12-19T05:13:11.246Z,4.82
2023-12-19T05:16:15.054Z,5.72
2023-12-19T05:19:17.962Z,5.45
2023-12-19T05:22:21.356Z,5.47
2023-12-19T05:25:24.134Z,5.68
2023-12-19T05:28:26.811Z,3.80
2023-12-19T05:31:29.573Z,3.75
2023-12-19T05:34:32.510Z,6.75
2023-12-19T05:37:35.379Z,4.72
2023-12-19T05:40:43.189Z,3.15
2023-12-19T05:43:45.899Z,3.00
2023-12-19T05:46:48.721Z,3.83
2023-12-19T05:49:51.586Z,5.88
2023-12-19T05:52:54.493Z,6.75
2023-12-19T05:55:57.274Z,9.13
2023-12-19T05:59:00.285Z,16.10
2023-12-19T06:02:03.104Z,10.70
2023-12-19T06:05:09.475Z,6.70
2023-12-19T06:08:12.206Z,25.13
2023-12-19T06:11:16.285Z,9.75
2023-12-19T06:14:19.031Z,9.43
2023-12-19T06:17:22.133Z,9.90
2023-12-19T06:20:24.843Z,8.55
2023-12-19T06:23:28.659Z,7.95
2023-12-19T06:26:31.412Z,8.60
2023-12-19T06:29:34.142Z,8.48
2023-12-19T06:32:37.795Z,13.38
2023-12-19T06:35:42.460Z,12.63
2023-12-19T06:38:45.109Z,16.45
2023-12-19T06:41:47.836Z,12.35
2023-12-19T06:44:50.963Z,9.70
2023-12-19T06:47:53.755Z,7.68
2023-12-19T06:50:56.735Z,8.20
2023-12-19T06:53:59.433Z,8.15
2023-12-19T06:57:02.191Z,7.97
2023-12-19T07:00:07.445Z,11.52
2023-12-19T07:03:10.352Z,11.35
2023-12-19T07:06:15.218Z,11.25
2023-12-19T07:09:18.049Z,15.32
2023-12-19T07:12:20.810Z,12.30
2023-12-19T07:15:23.875Z,7.93
2023-12-19T07:18:26.737Z,6.90
2023-12-19T07:21:30.934Z,5.35
2023-12-19T07:24:33.846Z,7.82
2023-12-19T07:27:38.424Z,8.77
2023-12-19T07:30:42.099Z,13.27
2023-12-19T07:33:45.042Z,12.68
2023-12-19T07:36:47.995Z,9.60
2023-12-19T07:39:50.919Z,7.57
2023-12-19T07:42:53.668Z,8.23
2023-12-19T07:45:58.899Z,6.78
2023-12-19T07:49:02.032Z,4.72
2023-12-19T07:52:05.644Z,4.00
2023-12-19T07:55:12.224Z,3.60
2023-12-19T07:58:15.228Z,3.67
2023-12-19T08:01:18.416Z,4.72
2023-12-19T08:04:21.621Z,3.97
2023-12-19T08:07:24.399Z,3.95
2023-12-19T08:10:28.067Z,4.70
2023-12-19T08:13:30.949Z,5.75
2023-12-19T08:16:33.960Z,7.13
2023-12-19T08:19:39.222Z,11.52
2023-12-19T08:22:43.501Z,10.90
2023-12-19T08:25:46.305Z,9.85
2023-12-19T08:28:49.693Z,13.18
2023-12-19T08:31:52.517Z,16.52
2023-12-19T08:34:55.517Z,17.63
2023-12-19T08:37:58.534Z,13.82
2023-12-19T08:41:01.611Z,12.40
2023-12-19T08:44:04.641Z,16.30
2023-12-19T08:47:07.467Z,14.50
2023-12-19T08:50:12.012Z,37.10
2023-12-19T08:53:15.191Z,28.92
2023-12-19T08:56:18.341Z,30.65
2023-12-19T08:59:21.247Z,29.80
2023-12-19T09:02:24.140Z,30.48
2023-12-19T09:05:27.230Z,36.55
2023-12-19T09:08:30.338Z,33.60
2023-12-19T09:11:35.184Z,27.27
2023-12-19T09:14:38.518Z,24.88
2023-12-19T09:17:42.585Z,29.27
2023-12-19T09:20:45.749Z,26.05
2023-12-19T09:23:48.929Z,29.38
2023-12-19T09:26:52.010Z,27.25
2023-12-19T09:29:54.774Z,31.27
2023-12-19T09:32:59.209Z,35.63
2023-12-19T09:36:02.489Z,37.45
2023-12-19T09:39:05.924Z,44.75
2023-12-19T09:42:09.065Z,38.67
2023-12-19T09:45:13.790Z,31.33
2023-12-19T09:48:17.118Z,30.40
2023-12-19T09:51:32.024Z,29.98
2023-12-19T09:54:36.540Z,26.77
2023-12-19T09:57:42.659Z,23.70
2023-12-19T10:00:47.049Z,28.40
2023-12-19T10:03:51.710Z,36.55
2023-12-19T10:07:00.527Z,34.05
2023-12-19T10:10:04.627Z,33.63
2023-12-19T10:13:07.981Z,23.95
2023-12-19T10:16:30.876Z,14.98
2023-12-19T10:19:36.732Z,11.45
2023-12-19T10:22:39.985Z,10.98
2023-12-19T10:25:46.465Z,17.35
2023-12-19T10:28:58.639Z,19.08
2023-12-19T10:32:12.675Z,21.98
2023-12-19T10:35:15.790Z,17.13
2023-12-19T10:38:18.892Z,17.23
2023-12-19T10:41:34.836Z,18.45
2023-12-19T10:44:40.676Z,19.83
2023-12-19T10:47:43.908Z,21.00
2023-12-19T10:50:48.521Z,19.98
2023-12-19T10:54:00.574Z,22.40
2023-12-19T10:57:08.449Z,22.05
2023-12-19T11:00:18.985Z,27.70
2023-12-19T11:03:35.044Z,24.73
2023-12-19T11:06:39.305Z,28.50
2023-12-19T11:09:45.289Z,30.67
2023-12-19T11:12:48.573Z,23.40
2023-12-19T11:15:57.013Z,26.10
2023-12-19T11:19:09.994Z,27.60
2023-12-19T11:22:20.030Z,27.17
2023-12-19T11:25:36.015Z,27.02
2023-12-19T11:28:40.176Z,24.33
2023-12-19T11:31:43.218Z,20.23
2023-12-19T11:34:46.138Z,23.40
2023-12-19T11:37:49.477Z,17.42
2023-12-19T11:40:53.359Z,18.23
2023-12-19T11:43:56.520Z,21.38
2023-12-19T11:47:16.315Z,17.92
2023-12-19T11:50:41.155Z,13.43
2023-12-19T11:53:44.377Z,16.92
2023-12-19T11:56:59.032Z,18.02
2023-12-19T12:00:02.873Z,16.90
2023-12-19T12:03:14.791Z,17.23
2023-12-19T12:06:22.366Z,15.38
2023-12-19T12:09:26.677Z,14.32
2023-12-19T12:12:36.898Z,11.05
2023-12-19T12:15:39.900Z,11.68
2023-12-19T12:18:44.563Z,9.45
2023-12-19T12:21:51.812Z,9.45
2023-12-19T12:28:11.377Z,8.13
2023-12-19T12:31:15.352Z,8.55
2023-12-19T12:34:18.696Z,9.85
2023-12-19T12:37:25.886Z,11.68
2023-12-19T12:40:31.112Z,10.40
2023-12-19T12:43:51.607Z,10.32
2023-12-19T12:46:54.677Z,10.93
2023-12-19T12:50:08.352Z,10.50
2023-12-19T12:53:17.825Z,11.73
2023-12-19T12:56:21.280Z,10.95
2023-12-19T12:59:30.349Z,13.50
2023-12-19T13:02:40.655Z,14.48
2023-12-19T13:05:44.356Z,13.38
2023-12-19T13:08:47.829Z,18.48
2023-12-19T13:11:55.823Z,18.00
2023-12-19T13:14:59.164Z,32.58
2023-12-19T13:18:05.691Z,39.90
2023-12-19T13:21:09.712Z,41.55
2023-12-19T13:24:16.002Z,26.30
2023-12-19T13:27:27.312Z,22.13
2023-12-19T13:30:32.874Z,18.40
2023-12-19T13:33:36.532Z,20.70
2023-12-19T13:36:42.684Z,15.48
2023-12-19T13:39:49.752Z,13.20
2023-12-19T13:42:59.700Z,13.45
2023-12-19T13:46:07.183Z,16.10
2023-12-19T13:49:23.157Z,17.42
2023-12-19T13:52:32.934Z,22.58
2023-12-19T13:55:42.423Z,22.00
2023-12-19T13:58:47.486Z,31.15
2023-12-19T14:01:57.067Z,26.33
2023-12-19T14:05:06.921Z,28.30
2023-12-19T14:08:12.553Z,25.20
2023-12-19T14:11:16.028Z,28.27
2023-12-19T14:14:22.325Z,15.57
2023-12-19T14:17:25.261Z,13.67
2023-12-19T14:20:30.341Z,10.35
2023-12-19T14:23:36.020Z,7.35
2023-12-19T14:26:41.212Z,6.93
2023-12-19T14:29:46.239Z,6.85
2023-12-19T14:32:50.181Z,8.73
2023-12-19T14:35:55.682Z,7.55
2023-12-19T14:38:58.623Z,6.95
2023-12-19T14:42:03.085Z,7.82
2023-12-19T14:45:06.926Z,8.23
2023-12-19T14:48:10.997Z,11.13
2023-12-19T14:51:18.675Z,9.15
2023-12-19T14:54:21.941Z,10.05
2023-12-19T14:57:27.099Z,11.13
2023-12-19T15:00:31.101Z,9.63
2023-12-19T15:03:34.487Z,11.23
2023-12-19T15:06:39.101Z,12.65
2023-12-19T15:09:44.990Z,14.23
2023-12-19T15:12:48.814Z,13.05
2023-12-19T15:15:53.301Z,14.77
2023-12-19T15:18:56.866Z,15.00
2023-12-19T15:22:00.903Z,16.33
2023-12-19T15:25:05.991Z,15.50
2023-12-19T15:28:17.211Z,15.23
2023-12-19T15:31:24.182Z,18.40
2023-12-19T15:34:31.704Z,16.92
2023-12-19T15:37:34.994Z,18.63
2023-12-19T15:40:37.981Z,20.50
2023-12-19T15:43:42.823Z,18.88
2023-12-19T15:46:48.856Z,18.23
2023-12-19T15:49:52.282Z,18.38
2023-12-19T15:52:56.856Z,19.45
2023-12-19T15:56:00.454Z,17.75
2023-12-19T15:59:05.558Z,21.65
2023-12-19T16:02:11.955Z,24.17
2023-12-19T16:05:15.959Z,24.75
2023-12-19T16:08:19.040Z,20.90
2023-12-19T16:11:25.651Z,19.73
2023-12-19T16:14:28.891Z,20.00
2023-12-19T16:17:32.402Z,22.45
2023-12-19T16:20:37.729Z,23.13
2023-12-19T16:23:53.101Z,22.60
2023-12-19T16:27:04.473Z,20.10
2023-12-19T16:30:08.166Z,22.58
2023-12-19T16:33:13.320Z,21.80
2023-12-19T16:36:16.431Z,20.77
2023-12-19T16:39:19.245Z,21.90
2023-12-19T16:42:22.879Z,19.98
2023-12-19T16:45:26.043Z,19.70
2023-12-19T16:48:29.333Z,18.02
2023-12-19T16:51:34.070Z,20.73
2023-12-19T16:54:38.039Z,55.22
2023-12-19T16:57:44.138Z,32.25
2023-12-19T17:00:47.294Z,27.17
2023-12-19T17:03:51.095Z,26.38
2023-12-19T17:06:54.993Z,27.15
2023-12-19T17:09:58.341Z,20.55
2023-12-19T17:13:02.113Z,20.05
2023-12-19T17:16:07.781Z,19.35
2023-12-19T17:19:11.143Z,18.13
2023-12-19T17:22:16.478Z,18.60
2023-12-19T17:25:19.515Z,18.58
2023-12-19T17:28:23.363Z,17.60
2023-12-19T17:31:26.781Z,19.67
2023-12-19T17:34:31.118Z,20.05
2023-12-19T17:37:35.331Z,20.45
2023-12-19T17:40:44.307Z,18.95
2023-12-19T17:43:48.328Z,18.20
2023-12-19T17:46:54.118Z,19.88
2023-12-19T17:49:57.504Z,18.02
2023-12-19T17:53:01.287Z,17.80
2023-12-19T17:56:04.842Z,17.55
2023-12-19T17:59:10.372Z,15.68
2023-12-19T18:02:13.889Z,17.65
2023-12-19T18:05:20.157Z,18.42
2023-12-19T18:08:24.307Z,17.55
2023-12-19T18:11:30.158Z,18.95
2023-12-19T18:14:33.782Z,19.35
2023-12-19T18:17:37.384Z,16.33
2023-12-19T18:20:47.416Z,17.38
2023-12-19T18:23:50.768Z,14.70
2023-12-19T18:26:54.203Z,17.25
2023-12-19T18:29:57.428Z,16.38
2023-12-19T18:33:03.840Z,16.25
2023-12-19T18:36:07.703Z,17.33
2023-12-19T18:39:12.132Z,16.27
2023-12-19T18:42:17.066Z,13.85
2023-12-19T18:45:20.056Z,15.20
2023-12-19T18:48:23.327Z,16.23
2023-12-19T18:51:26.512Z,16.15
2023-12-19T18:54:29.566Z,17.02
2023-12-19T18:57:32.516Z,17.90
2023-12-19T19:00:38.510Z,15.52
2023-12-19T19:03:42.174Z,14.98
2023-12-19T19:06:45.149Z,19.73
2023-12-19T19:09:48.524Z,14.57
2023-12-19T19:12:54.889Z,14.77
2023-12-19T19:15:58.678Z,16.75
2023-12-19T19:19:02.710Z,33.13
2023-12-19T19:22:06.216Z,17.92
2023-12-19T19:25:11.984Z,29.65
2023-12-19T19:28:18.046Z,25.25
2023-12-19T19:31:21.482Z,24.63
2023-12-19T19:34:26.800Z,60.88
2023-12-19T19:37:30.857Z,33.35
2023-12-19T19:40:39.253Z,56.63
2023-12-19T19:43:48.610Z,43.40
2023-12-19T19:46:51.532Z,30.10
2023-12-19T19:49:54.510Z,20.00
2023-12-19T19:53:07.322Z,20.65
2023-12-19T19:56:10.849Z,24.30
2023-12-19T19:59:15.561Z,21.45
2023-12-19T20:02:18.349Z,17.92
2023-12-19T20:05:22.247Z,22.58
2023-12-19T20:08:26.343Z,30.27
2023-12-19T20:11:30.576Z,19.67
2023-12-19T20:14:33.659Z,18.90
2023-12-19T20:17:36.629Z,16.65
2023-12-19T20:20:40.330Z,17.50
2023-12-19T20:23:43.179Z,20.45
2023-12-19T20:26:45.966Z,19.88
2023-12-19T20:29:48.876Z,18.17
2023-12-19T20:32:51.921Z,18.92
2023-12-19T20:35:54.878Z,19.27
2023-12-19T20:38:57.882Z,23.10
2023-12-19T20:42:00.916Z,19.95
2023-12-19T20:45:04.121Z,32.88
2023-12-19T20:48:07.523Z,26.50
2023-12-19T20:51:10.611Z,23.73
2023-12-19T20:54:14.071Z,19.63
2023-12-19T20:57:16.815Z,18.75
2023-12-19T21:00:20.364Z,19.20
2023-12-19T21:03:23.444Z,23.58
2023-12-19T21:06:26.369Z,23.35
2023-12-19T21:09:29.342Z,21.95
2023-12-19T21:12:32.363Z,23.02
2023-12-19T21:15:36.317Z,20.75
2023-12-19T21:18:39.214Z,21.83
2023-12-19T21:21:42.133Z,30.02
2023-12-19T21:24:44.958Z,21.33
2023-12-19T21:27:47.920Z,20.38
2023-12-19T21:30:50.967Z,20.45
2023-12-19T21:33:53.855Z,18.67
2023-12-19T21:36:56.809Z,22.27
2023-12-19T21:40:00.378Z,20.67
2023-12-19T21:43:03.738Z,20.17
2023-12-19T21:46:06.707Z,19.27
2023-12-19T21:49:10.201Z,19.35
2023-12-19T21:52:13.361Z,19.80
2023-12-19T21:55:16.225Z,19.25
2023-12-19T21:58:19.082Z,18.73
2023-12-19T22:01:22.386Z,21.73
2023-12-19T22:04:25.517Z,25.50
2023-12-19T22:07:28.528Z,42.38
2023-12-19T22:10:31.498Z,33.75
2023-12-19T22:13:34.267Z,24.70
2023-12-19T22:16:37.053Z,21.23
2023-12-19T22:19:40.157Z,20.88
2023-12-19T22:22:43.501Z,22.02
2023-12-19T22:25:46.294Z,23.25
2023-12-19T22:28:49.556Z,24.05
2023-12-19T22:31:53.226Z,22.08
2023-12-19T22:34:56.021Z,27.63
2023-12-19T22:38:03.250Z,23.85
2023-12-19T22:41:06.358Z,23.02
2023-12-19T22:44:09.048Z,25.60
2023-12-19T22:47:11.859Z,48.50
2023-12-19T22:50:14.593Z,40.55
2023-12-19T22:53:17.342Z,55.75
2023-12-19T22:56:20.781Z,57.72
2023-12-19T22:59:23.502Z,48.83
2023-12-19T23:02:26.358Z,42.38
2023-12-19T23:05:29.774Z,53.65
2023-12-19T23:08:32.479Z,50.28
2023-12-19T23:11:35.151Z,40.67
2023-12-19T23:14:41.972Z,49.78
2023-12-19T23:17:44.860Z,57.15
2023-12-19T23:20:47.802Z,49.70
2023-12-19T23:23:51.582Z,45.40
2023-12-19T23:26:54.818Z,43.75
2023-12-19T23:29:57.773Z,51.00
2023-12-19T23:33:00.498Z,47.90
2023-12-19T23:36:04.036Z,48.13
2023-12-19T23:39:06.909Z,61.08
2023-12-19T23:42:09.686Z,56.38
2023-12-19T23:45:12.474Z,58.15
2023-12-19T23:48:15.369Z,55.50
2023-12-19T23:51:18.792Z,54.08
2023-12-19T23:54:21.541Z,56.10
2023-12-19T23:57:24.418Z,65.72
